Aviation Digital Data Service (ADDS)

Output produced by METARs form (2101 UTC 08 February 2023)
found at http://aviationweather.gov/metar/data/
 
METAR text: KDKB 082055Z AUTO 16007KT 10SM CLR 04/01 A3015 RMK AO2 T00410005
Conditions at: KDKB (DE KALB , IL, US) observed 2055 UTC 08 February 2023
Temperature: 4.1°C (39°F)
Dewpoint: 0.5°C (33°F) [RH = 77%]
Pressure (altimeter): 30.15 inches Hg (1021.1 mb)
Winds: from the SSE (160 degrees) at 8 MPH (7 knots; 3.6 m/s)
Visibility: 10 or more miles (16+ km)
Ceiling: at least 12,000 feet AGL
Clouds: sky clear below 12,000 feet AGL
Weather: automated observation with no human augmentation;
there may or may not be significant weather present at this time